Time;durP1;ratioP1;P1;durP2;ratioP2;P2;SDS_P1;SDS_P2;PMS_P1;PMS_P2;Temp;Humidity;BMP_temperature;BMP_pressure;BME280_temperature;BME280_humidity;BME280_pressure;Samples;Min_cycle;Max_cycle;Signal;HPM_P1;HPM_P2
2023/06/22 00:01:53;;;;;;;0.50;0.43;;;;;;;;;;5014758;28;20033;-83
2023/06/22 00:04:19;;;;;;;0.35;0.35;;;;;;;;;;5016591;28;20045;-82
2023/06/22 00:06:45;;;;;;;1.30;1.13;;;;;;;;;;5024069;28;20063;-80
2023/06/22 00:09:11;;;;;;;0.50;0.50;;;;;;;;;;5000375;28;20591;-82
2023/06/22 00:11:38;;;;;;;0.25;0.25;;;;;;;;;;5017302;28;20124;-83
2023/06/22 00:14:05;;;;;;;0.20;0.20;;;;;;;;;;4999152;28;23083;-82
2023/06/22 00:16:32;;;;;;;0.98;0.88;;;;;;;;;;5004335;28;20045;-82
2023/06/22 00:19:00;;;;;;;0.32;0.32;;;;;;;;;;5020459;28;21190;-83
2023/06/22 00:21:33;;;;;;;1.52;1.00;;;;;;;;;;5033687;28;20033;-82
2023/06/22 00:23:59;;;;;;;1.05;0.95;;;;;;;;;;5027632;28;20041;-82
2023/06/22 00:26:25;;;;;;;0.60;0.20;;;;;;;;;;5009410;28;20097;-82
2023/06/22 00:28:51;;;;;;;0.52;0.40;;;;;;;;;;5007052;28;20113;-82
2023/06/22 00:31:17;;;;;;;0.60;0.60;;;;;;;;;;5010969;28;20061;-82
2023/06/22 00:33:43;;;;;;;0.20;0.20;;;;;;;;;;5031503;28;20052;-82
2023/06/22 00:36:12;;;;;;;0.30;0.30;;;;;;;;;;5015832;28;20045;-82
2023/06/22 00:38:40;;;;;;;0.40;0.30;;;;;;;;;;5024723;28;20332;-82
2023/06/22 00:41:06;;;;;;;0.38;0.28;;;;;;;;;;5013002;28;20053;-82
2023/06/22 00:43:32;;;;;;;0.70;0.70;;;;;;;;;;5010532;28;20057;-82
2023/06/22 00:45:58;;;;;;;0.43;0.30;;;;;;;;;;5037315;28;20041;-82
2023/06/22 00:48:24;;;;;;;0.57;0.38;;;;;;;;;;5023552;28;20040;-82
2023/06/22 00:50:51;;;;;;;0.50;0.47;;;;;;;;;;5025853;28;20560;-82
2023/06/22 00:53:17;;;;;;;0.20;0.20;;;;;;;;;;5010855;28;20405;-81
2023/06/22 00:55:51;;;;;;;0.20;0.20;;;;;;;;;;5010947;28;20048;-82
2023/06/22 00:58:17;;;;;;;0.20;0.20;;;;;;;;;;5024506;23;20053;-81
2023/06/22 01:00:43;;;;;;;0.57;0.47;;;;;;;;;;4980238;28;20124;-82
2023/06/22 01:03:09;;;;;;;1.13;0.60;;;;;;;;;;4995373;28;20294;-81
2023/06/22 01:05:36;;;;;;;0.45;0.45;;;;;;;;;;4995205;28;20084;-82
2023/06/22 01:08:05;;;;;;;0.45;0.45;;;;;;;;;;4976450;28;20423;-81
2023/06/22 01:10:40;;;;;;;0.47;0.45;;;;;;;;;;4958751;28;20084;-81
2023/06/22 01:13:27;;;;;;;0.43;0.28;;;;;;;;;;4966833;28;20068;-81
2023/06/22 01:15:58;;;;;;;0.28;0.22;;;;;;;;;;4946952;28;20041;-81
2023/06/22 01:18:27;;;;;;;0.20;0.13;;;;;;;;;;4963021;28;20066;-82
2023/06/22 01:20:57;;;;;;;0.32;0.30;;;;;;;;;;4953958;28;20352;-81
2023/06/22 01:23:28;;;;;;;0.50;0.30;;;;;;;;;;4978592;28;20077;-82
2023/06/22 01:26:03;;;;;;;0.40;0.40;;;;;;;;;;4980323;28;20669;-82
2023/06/22 01:28:47;;;;;;;0.47;0.47;;;;;;;;;;4977300;28;20049;-82
2023/06/22 01:31:16;;;;;;;0.40;0.40;;;;;;;;;;4958664;28;20586;-82
2023/06/22 01:33:44;;;;;;;0.50;0.40;;;;;;;;;;4954161;28;21470;-82
2023/06/22 01:36:10;;;;;;;0.52;0.45;;;;;;;;;;4943410;28;20041;-82
2023/06/22 01:38:37;;;;;;;0.43;0.40;;;;;;;;;;4974761;28;20053;-82
2023/06/22 01:41:04;;;;;;;0.20;0.20;;;;;;;;;;4950262;28;20041;-82
2023/06/22 01:43:30;;;;;;;0.93;0.28;;;;;;;;;;4963893;28;20064;-82
2023/06/22 01:45:57;;;;;;;0.95;0.50;;;;;;;;;;4964676;28;20609;-82
2023/06/22 01:48:25;;;;;;;0.50;0.50;;;;;;;;;;4966471;28;20318;-83
2023/06/22 01:50:52;;;;;;;1.27;0.47;;;;;;;;;;4968256;28;20057;-82
2023/06/22 01:53:18;;;;;;;0.40;0.40;;;;;;;;;;4957370;28;20053;-82
2023/06/22 01:55:44;;;;;;;0.50;0.30;;;;;;;;;;4967272;28;20042;-82
2023/06/22 01:58:10;;;;;;;0.35;0.22;;;;;;;;;;4982198;28;20165;-82
2023/06/22 02:00:38;;;;;;;0.55;0.55;;;;;;;;;;4990185;28;20133;-82
2023/06/22 02:03:09;;;;;;;0.57;0.35;;;;;;;;;;4982133;28;20042;-82
2023/06/22 02:05:38;;;;;;;0.63;0.63;;;;;;;;;;4981774;28;20080;-82
2023/06/22 02:08:07;;;;;;;0.30;0.30;;;;;;;;;;4984426;28;20054;-82
2023/06/22 02:10:35;;;;;;;1.85;0.70;;;;;;;;;;4979437;28;20080;-81
2023/06/22 02:13:01;;;;;;;0.50;0.40;;;;;;;;;;4984296;28;20029;-81
2023/06/22 02:15:27;;;;;;;0.40;0.38;;;;;;;;;;4984550;28;20172;-81
2023/06/22 02:17:53;;;;;;;0.75;0.75;;;;;;;;;;4983228;28;20053;-82
2023/06/22 02:20:20;;;;;;;0.40;0.32;;;;;;;;;;4987347;28;20467;-82
2023/06/22 02:22:46;;;;;;;0.60;0.30;;;;;;;;;;4982752;28;20056;-81
2023/06/22 02:25:12;;;;;;;0.28;0.25;;;;;;;;;;4969375;28;20073;-81
2023/06/22 02:27:41;;;;;;;0.80;0.57;;;;;;;;;;4973681;28;20489;-81
2023/06/22 02:30:10;;;;;;;0.60;0.55;;;;;;;;;;4987697;28;20084;-82
2023/06/22 02:32:36;;;;;;;0.35;0.35;;;;;;;;;;4991224;28;20426;-81
2023/06/22 02:35:04;;;;;;;0.40;0.40;;;;;;;;;;5000155;28;20049;-81
2023/06/22 02:37:30;;;;;;;0.38;0.30;;;;;;;;;;4976618;28;20402;-82
2023/06/22 02:39:56;;;;;;;0.57;0.57;;;;;;;;;;4986240;28;20052;-81
2023/06/22 02:42:22;;;;;;;0.75;0.63;;;;;;;;;;4970008;28;20046;-82
2023/06/22 02:44:48;;;;;;;0.43;0.43;;;;;;;;;;4973133;28;20034;-81
2023/06/22 02:47:14;;;;;;;0.70;0.55;;;;;;;;;;4966773;28;20522;-81
2023/06/22 02:49:41;;;;;;;0.90;0.70;;;;;;;;;;4972737;28;20038;-82
2023/06/22 02:52:07;;;;;;;1.15;0.50;;;;;;;;;;4979767;28;20046;-82
2023/06/22 02:54:33;;;;;;;0.30;0.25;;;;;;;;;;4986948;28;20035;-82
2023/06/22 02:57:02;;;;;;;0.55;0.40;;;;;;;;;;4970368;28;20053;-82
2023/06/22 02:59:28;;;;;;;0.20;0.20;;;;;;;;;;4970734;28;20045;-82
2023/06/22 03:01:55;;;;;;;0.40;0.40;;;;;;;;;;4971928;28;20281;-82
2023/06/22 03:04:21;;;;;;;0.43;0.32;;;;;;;;;;4969053;28;20041;-81
2023/06/22 03:06:50;;;;;;;0.98;0.55;;;;;;;;;;4954006;28;20037;-82
2023/06/22 03:09:17;;;;;;;0.20;0.10;;;;;;;;;;4961636;28;20037;-82
2023/06/22 03:11:43;;;;;;;0.50;0.50;;;;;;;;;;4974052;28;20048;-82
2023/06/22 03:14:09;;;;;;;0.32;0.30;;;;;;;;;;4969068;28;20224;-82
2023/06/22 03:16:36;;;;;;;0.32;0.25;;;;;;;;;;4970889;28;20042;-83
2023/06/22 03:19:02;;;;;;;0.22;0.13;;;;;;;;;;4972617;28;20080;-82
2023/06/22 03:21:29;;;;;;;0.50;0.30;;;;;;;;;;4967128;28;20625;-82
2023/06/22 03:23:55;;;;;;;1.08;0.80;;;;;;;;;;4973038;28;20085;-82
2023/06/22 03:26:21;;;;;;;0.55;0.43;;;;;;;;;;4964984;28;20070;-82
2023/06/22 03:28:47;;;;;;;0.38;0.30;;;;;;;;;;4971294;28;20041;-82
2023/06/22 03:31:13;;;;;;;0.25;0.25;;;;;;;;;;4962075;28;20038;-83
2023/06/22 03:33:39;;;;;;;0.65;0.65;;;;;;;;;;4973488;28;20093;-82
2023/06/22 03:36:05;;;;;;;0.60;0.60;;;;;;;;;;4968179;28;20042;-83
2023/06/22 03:38:31;;;;;;;2.50;0.75;;;;;;;;;;4979713;28;20125;-82
2023/06/22 03:40:57;;;;;;;0.50;0.50;;;;;;;;;;4970937;28;20042;-83
2023/06/22 03:43:23;;;;;;;0.57;0.57;;;;;;;;;;4968490;28;20060;-83
2023/06/22 03:45:49;;;;;;;0.28;0.28;;;;;;;;;;4951402;28;20041;-83
2023/06/22 03:48:15;;;;;;;0.20;0.20;;;;;;;;;;4957895;28;20038;-83
2023/06/22 03:50:43;;;;;;;0.35;0.28;;;;;;;;;;4965091;28;20121;-82
2023/06/22 03:53:10;;;;;;;0.45;0.30;;;;;;;;;;4966372;28;20050;-82
2023/06/22 03:55:36;;;;;;;1.40;0.73;;;;;;;;;;4957674;28;20496;-83
2023/06/22 03:58:05;;;;;;;1.50;0.82;;;;;;;;;;4961848;28;20584;-83
2023/06/22 04:00:31;;;;;;;0.52;0.45;;;;;;;;;;4968172;28;20042;-84
2023/06/22 04:02:57;;;;;;;1.30;0.52;;;;;;;;;;4981466;28;20042;-83
2023/06/22 04:05:24;;;;;;;0.47;0.45;;;;;;;;;;4976861;28;20514;-83
2023/06/22 04:07:50;;;;;;;0.73;0.65;;;;;;;;;;4970327;28;20330;-83
2023/06/22 04:10:16;;;;;;;0.98;0.50;;;;;;;;;;4976682;28;20498;-84
2023/06/22 04:12:42;;;;;;;0.50;0.45;;;;;;;;;;4975240;28;20069;-83
2023/06/22 04:15:08;;;;;;;0.30;0.25;;;;;;;;;;4974067;28;20080;-84
2023/06/22 04:17:34;;;;;;;0.22;0.22;;;;;;;;;;4982100;28;22023;-83
2023/06/22 04:20:00;;;;;;;0.20;0.20;;;;;;;;;;4982181;28;20030;-84
2023/06/22 04:22:26;;;;;;;0.45;0.43;;;;;;;;;;4980282;28;20038;-83
2023/06/22 04:24:52;;;;;;;0.73;0.52;;;;;;;;;;4975136;28;20038;-84
2023/06/22 04:27:19;;;;;;;0.30;0.30;;;;;;;;;;4983601;28;20069;-85
2023/06/22 04:29:48;;;;;;;0.50;0.35;;;;;;;;;;4984439;28;20494;-83
2023/06/22 04:32:15;;;;;;;0.20;0.10;;;;;;;;;;4986164;28;20525;-83
2023/06/22 04:34:41;;;;;;;1.13;0.52;;;;;;;;;;4986756;28;21622;-84
2023/06/22 04:37:07;;;;;;;0.32;0.22;;;;;;;;;;4989076;28;20046;-83
2023/06/22 04:39:33;;;;;;;0.57;0.52;;;;;;;;;;4990665;28;20049;-81
2023/06/22 04:42:02;;;;;;;0.98;0.65;;;;;;;;;;4990902;28;20045;-83
2023/06/22 04:44:28;;;;;;;0.65;0.50;;;;;;;;;;4977961;28;20045;-82
2023/06/22 04:47:03;;;;;;;0.85;0.60;;;;;;;;;;4987890;28;20358;-84
2023/06/22 04:49:34;;;;;;;1.13;0.38;;;;;;;;;;4984825;28;20430;-82
2023/06/22 04:52:00;;;;;;;0.50;0.50;;;;;;;;;;4986772;28;20041;-83
2023/06/22 04:54:26;;;;;;;0.55;0.55;;;;;;;;;;4976217;28;20065;-82
2023/06/22 04:56:56;;;;;;;0.28;0.25;;;;;;;;;;4981564;28;20136;-82
2023/06/22 04:59:28;;;;;;;0.82;0.63;;;;;;;;;;4960555;28;20045;-84
2023/06/22 05:01:54;;;;;;;0.75;0.30;;;;;;;;;;4962778;28;20057;-81
2023/06/22 05:04:20;;;;;;;0.45;0.45;;;;;;;;;;4966466;28;20046;-84
2023/06/22 05:06:46;;;;;;;0.30;0.30;;;;;;;;;;4950097;28;20451;-83
2023/06/22 05:09:12;;;;;;;0.20;0.10;;;;;;;;;;4944350;28;20791;-84
2023/06/22 05:11:38;;;;;;;0.43;0.30;;;;;;;;;;4956750;28;20828;-85
2023/06/22 05:14:04;;;;;;;0.30;0.30;;;;;;;;;;4977818;28;20038;-81
2023/06/22 05:16:31;;;;;;;0.65;0.43;;;;;;;;;;4969415;28;20052;-86
2023/06/22 05:18:57;;;;;;;0.43;0.30;;;;;;;;;;4960717;28;20049;-83
2023/06/22 05:21:24;;;;;;;0.75;0.60;;;;;;;;;;4972392;28;20080;-83
2023/06/22 05:23:50;;;;;;;0.40;0.40;;;;;;;;;;4973171;28;20073;-84
2023/06/22 05:26:18;;;;;;;0.57;0.57;;;;;;;;;;4970730;28;20046;-83
2023/06/22 05:28:46;;;;;;;1.65;0.40;;;;;;;;;;4968546;28;20502;-86
2023/06/22 05:31:14;;;;;;;0.50;0.50;;;;;;;;;;4965687;28;20495;-83
2023/06/22 05:33:40;;;;;;;0.47;0.40;;;;;;;;;;4952277;28;20096;-82
2023/06/22 05:36:06;;;;;;;0.32;0.28;;;;;;;;;;4965428;28;20056;-80
2023/06/22 05:38:33;;;;;;;0.30;0.20;;;;;;;;;;4967985;28;20049;-79
2023/06/22 05:40:59;;;;;;;0.22;0.22;;;;;;;;;;4972063;28;20044;-83
2023/06/22 05:43:25;;;;;;;0.45;0.30;;;;;;;;;;4968258;28;20046;-82
2023/06/22 05:45:51;;;;;;;0.25;0.20;;;;;;;;;;4967258;28;20518;-80
2023/06/22 05:48:17;;;;;;;0.20;0.15;;;;;;;;;;4970825;28;20042;-84
2023/06/22 05:50:43;;;;;;;0.52;0.50;;;;;;;;;;4977067;28;20045;-81
2023/06/22 05:53:09;;;;;;;0.35;0.35;;;;;;;;;;4965430;28;20067;-80
2023/06/22 05:55:35;;;;;;;0.80;0.32;;;;;;;;;;4963431;28;20672;-80
2023/06/22 05:58:03;;;;;;;0.80;0.60;;;;;;;;;;4967488;28;20069;-82
2023/06/22 06:00:29;;;;;;;0.35;0.20;;;;;;;;;;4988221;28;20073;-82
2023/06/22 06:02:55;;;;;;;0.30;0.30;;;;;;;;;;4995411;28;20041;-79
2023/06/22 06:05:22;;;;;;;0.20;0.10;;;;;;;;;;4990830;28;20045;-82
2023/06/22 06:07:48;;;;;;;0.47;0.20;;;;;;;;;;4973500;28;20061;-79
2023/06/22 06:10:15;;;;;;;0.65;0.60;;;;;;;;;;4992351;28;20498;-80
2023/06/22 06:12:41;;;;;;;0.47;0.38;;;;;;;;;;5018145;28;20041;-81
2023/06/22 06:15:07;;;;;;;0.30;0.25;;;;;;;;;;4997175;28;20826;-81
2023/06/22 06:17:33;;;;;;;1.00;0.35;;;;;;;;;;4995704;28;20041;-79
2023/06/22 06:20:00;;;;;;;0.20;0.20;;;;;;;;;;4995481;28;20041;-81
2023/06/22 06:22:26;;;;;;;0.40;0.20;;;;;;;;;;4997633;28;20049;-80
2023/06/22 06:24:52;;;;;;;0.68;0.40;;;;;;;;;;4992435;28;20088;-84
2023/06/22 06:27:18;;;;;;;0.50;0.50;;;;;;;;;;4989405;28;20065;-81
2023/06/22 06:29:48;;;;;;;0.30;0.30;;;;;;;;;;4993799;28;20590;-81
2023/06/22 06:32:15;;;;;;;0.35;0.22;;;;;;;;;;4987552;28;20556;-84
2023/06/22 06:34:41;;;;;;;0.55;0.55;;;;;;;;;;4987151;28;20033;-82
2023/06/22 06:37:07;;;;;;;1.30;0.55;;;;;;;;;;4992088;28;20690;-82
2023/06/22 06:39:33;;;;;;;1.05;0.25;;;;;;;;;;4988941;28;20424;-84
2023/06/22 06:41:59;;;;;;;0.52;0.40;;;;;;;;;;4993315;28;20097;-80
2023/06/22 06:44:25;;;;;;;0.20;0.10;;;;;;;;;;4978844;28;20073;-80
2023/06/22 06:46:51;;;;;;;0.20;0.10;;;;;;;;;;4997266;28;20046;-80
2023/06/22 06:49:17;;;;;;;0.20;0.17;;;;;;;;;;4992801;28;20042;-83
2023/06/22 06:51:43;;;;;;;0.20;0.10;;;;;;;;;;4981833;28;20034;-83
2023/06/22 06:54:09;;;;;;;0.77;0.30;;;;;;;;;;4987422;28;20064;-82
2023/06/22 06:56:36;;;;;;;0.32;0.28;;;;;;;;;;4996280;28;20049;-83
2023/06/22 06:59:02;;;;;;;0.20;0.17;;;;;;;;;;5050047;23;20104;-78
2023/06/22 07:01:33;;;;;;;0.43;0.20;;;;;;;;;;5019944;28;20098;-82
2023/06/22 07:03:59;;;;;;;0.63;0.63;;;;;;;;;;5022527;28;20049;-79
2023/06/22 07:06:28;;;;;;;0.20;0.17;;;;;;;;;;5022867;28;20034;-78
2023/06/22 07:08:55;;;;;;;0.30;0.25;;;;;;;;;;5005554;28;21067;-80
2023/06/22 07:11:21;;;;;;;0.30;0.20;;;;;;;;;;5025097;28;20045;-81
2023/06/22 07:13:47;;;;;;;0.20;0.20;;;;;;;;;;5002730;28;20041;-80
2023/06/22 07:16:13;;;;;;;0.52;0.38;;;;;;;;;;5021017;28;20574;-83
2023/06/22 07:18:40;;;;;;;0.20;0.10;;;;;;;;;;5003073;28;20038;-80
2023/06/22 07:21:06;;;;;;;0.30;0.20;;;;;;;;;;5002426;28;20147;-83
2023/06/22 07:23:33;;;;;;;0.22;0.13;;;;;;;;;;5009612;28;20041;-80
2023/06/22 07:26:01;;;;;;;0.20;0.20;;;;;;;;;;5019039;28;20116;-81
2023/06/22 07:28:29;;;;;;;0.30;0.28;;;;;;;;;;5018964;28;20053;-79
2023/06/22 07:30:55;;;;;;;0.30;0.30;;;;;;;;;;5012268;28;20060;-81
2023/06/22 07:33:21;;;;;;;0.20;0.10;;;;;;;;;;5024385;28;20044;-80
2023/06/22 07:35:48;;;;;;;0.20;0.20;;;;;;;;;;5020306;28;20038;-82
2023/06/22 07:38:15;;;;;;;0.30;0.30;;;;;;;;;;5019280;28;20059;-80
2023/06/22 07:40:41;;;;;;;0.22;0.22;;;;;;;;;;5007217;28;20134;-79
2023/06/22 07:43:07;;;;;;;0.28;0.28;;;;;;;;;;5003002;28;20045;-79
2023/06/22 07:45:34;;;;;;;0.35;0.30;;;;;;;;;;5018745;28;20692;-82
2023/06/22 07:48:01;;;;;;;0.35;0.35;;;;;;;;;;5013699;28;20042;-81
2023/06/22 07:50:27;;;;;;;0.20;0.17;;;;;;;;;;5018018;28;20064;-82
2023/06/22 07:52:53;;;;;;;0.20;0.10;;;;;;;;;;5014482;28;20041;-79
2023/06/22 07:55:19;;;;;;;0.20;0.10;;;;;;;;;;5001482;28;20142;-81
2023/06/22 07:57:47;;;;;;;0.20;0.10;;;;;;;;;;5004672;28;20045;-80
2023/06/22 08:00:15;;;;;;;0.20;0.20;;;;;;;;;;5008839;28;20043;-79
2023/06/22 08:02:41;;;;;;;0.20;0.10;;;;;;;;;;5014816;28;20202;-78
2023/06/22 08:05:08;;;;;;;0.20;0.10;;;;;;;;;;5020244;28;20041;-80
2023/06/22 08:07:37;;;;;;;0.30;0.28;;;;;;;;;;5000852;28;20040;-79
2023/06/22 08:10:04;;;;;;;0.20;0.10;;;;;;;;;;5007370;28;20060;-79
2023/06/22 08:12:30;;;;;;;0.20;0.10;;;;;;;;;;5002618;28;20113;-78
2023/06/22 08:14:56;;;;;;;0.43;0.20;;;;;;;;;;5007265;28;20068;-78
2023/06/22 08:17:23;;;;;;;0.45;0.38;;;;;;;;;;5019244;28;20041;-82
2023/06/22 08:19:49;;;;;;;0.20;0.20;;;;;;;;;;4996760;28;20390;-81
2023/06/22 08:22:16;;;;;;;0.30;0.20;;;;;;;;;;4997667;28;20784;-82
2023/06/22 08:24:42;;;;;;;0.47;0.40;;;;;;;;;;4998206;28;20037;-81
2023/06/22 08:27:13;;;;;;;0.25;0.20;;;;;;;;;;4994943;28;20615;-80
2023/06/22 08:29:39;;;;;;;0.20;0.13;;;;;;;;;;5006382;28;20060;-78
2023/06/22 08:32:06;;;;;;;0.63;0.45;;;;;;;;;;5022501;28;20652;-79
2023/06/22 08:34:32;;;;;;;0.32;0.32;;;;;;;;;;5021045;28;20037;-79
2023/06/22 08:36:58;;;;;;;0.20;0.13;;;;;;;;;;5008271;28;20111;-80
2023/06/22 08:39:24;;;;;;;0.80;0.30;;;;;;;;;;5008411;28;20041;-80
2023/06/22 08:41:50;;;;;;;0.20;0.10;;;;;;;;;;5012297;28;20045;-79
2023/06/22 08:44:19;;;;;;;0.20;0.10;;;;;;;;;;5016845;28;20072;-82
2023/06/22 08:46:45;;;;;;;0.20;0.20;;;;;;;;;;5015633;28;20033;-79
2023/06/22 08:49:11;;;;;;;0.20;0.15;;;;;;;;;;4991124;28;20045;-81
2023/06/22 08:51:37;;;;;;;1.55;0.43;;;;;;;;;;5004823;28;20513;-80
2023/06/22 08:54:03;;;;;;;0.20;0.10;;;;;;;;;;5003272;28;20582;-80
2023/06/22 08:56:29;;;;;;;0.80;0.57;;;;;;;;;;5021378;28;20131;-79
2023/06/22 08:58:55;;;;;;;0.20;0.20;;;;;;;;;;5004137;28;20574;-82
2023/06/22 09:01:22;;;;;;;0.20;0.10;;;;;;;;;;5003289;28;20120;-81
2023/06/22 09:03:55;;;;;;;0.50;0.40;;;;;;;;;;5004014;28;20316;-80
2023/06/22 09:06:21;;;;;;;0.50;0.40;;;;;;;;;;5003347;28;20490;-81
2023/06/22 09:08:48;;;;;;;0.30;0.20;;;;;;;;;;5011178;28;20042;-82
2023/06/22 09:11:15;;;;;;;0.40;0.30;;;;;;;;;;5019855;28;20080;-81
2023/06/22 09:13:41;;;;;;;0.30;0.17;;;;;;;;;;4994808;28;20038;-81
2023/06/22 09:16:07;;;;;;;0.40;0.20;;;;;;;;;;4999043;28;20045;-81
2023/06/22 09:18:34;;;;;;;0.50;0.40;;;;;;;;;;5001299;28;20490;-81
2023/06/22 09:21:00;;;;;;;0.30;0.10;;;;;;;;;;5002157;28;20041;-85
2023/06/22 09:23:26;;;;;;;0.35;0.20;;;;;;;;;;4999089;28;20087;-83
2023/06/22 09:25:52;;;;;;;0.20;0.10;;;;;;;;;;5004406;28;20046;-81
2023/06/22 09:28:18;;;;;;;0.20;0.17;;;;;;;;;;5000255;28;20060;-83
2023/06/22 09:30:44;;;;;;;0.20;0.10;;;;;;;;;;5019987;28;20030;-79
2023/06/22 09:33:10;;;;;;;0.20;0.10;;;;;;;;;;5022795;28;20380;-80
2023/06/22 09:35:36;;;;;;;0.60;0.43;;;;;;;;;;5004965;28;20068;-81
2023/06/22 09:38:02;;;;;;;0.20;0.10;;;;;;;;;;5015044;28;20041;-81
2023/06/22 09:40:28;;;;;;;0.82;0.28;;;;;;;;;;5012226;28;20037;-79
2023/06/22 09:42:55;;;;;;;0.20;0.20;;;;;;;;;;4999952;28;21571;-83
2023/06/22 09:45:21;;;;;;;0.30;0.30;;;;;;;;;;4999202;28;20049;-80
2023/06/22 09:47:47;;;;;;;0.25;0.20;;;;;;;;;;4998385;28;20077;-83
2023/06/22 09:50:13;;;;;;;0.35;0.15;;;;;;;;;;5014263;28;20041;-80
2023/06/22 09:52:39;;;;;;;0.30;0.20;;;;;;;;;;5016491;28;20033;-80
2023/06/22 09:55:05;;;;;;;0.20;0.10;;;;;;;;;;4993176;28;21071;-81
2023/06/22 09:57:31;;;;;;;0.20;0.10;;;;;;;;;;4989180;28;20052;-82
2023/06/22 09:59:57;;;;;;;0.20;0.20;;;;;;;;;;4999913;28;20612;-81
2023/06/22 10:02:23;;;;;;;1.02;0.35;;;;;;;;;;4997472;28;20582;-80
2023/06/22 10:04:49;;;;;;;1.20;0.47;;;;;;;;;;5008864;28;20045;-83
2023/06/22 10:07:15;;;;;;;0.25;0.20;;;;;;;;;;4996197;28;20394;-79
2023/06/22 10:09:41;;;;;;;0.68;0.50;;;;;;;;;;5012100;28;20042;-82
2023/06/22 10:12:07;;;;;;;0.50;0.30;;;;;;;;;;4999711;28;20064;-85
2023/06/22 10:14:34;;;;;;;0.20;0.10;;;;;;;;;;4995982;28;20037;-79
2023/06/22 10:17:00;;;;;;;0.35;0.30;;;;;;;;;;4999062;28;20528;-80
2023/06/22 10:19:26;;;;;;;0.50;0.28;;;;;;;;;;4996291;28;20059;-81
2023/06/22 10:21:52;;;;;;;0.50;0.30;;;;;;;;;;5006797;28;20048;-80
2023/06/22 10:24:18;;;;;;;0.30;0.30;;;;;;;;;;5007032;28;20073;-82
2023/06/22 10:26:44;;;;;;;2.80;0.43;;;;;;;;;;5012818;28;20043;-78
2023/06/22 10:29:10;;;;;;;0.30;0.30;;;;;;;;;;4996285;28;20536;-82
2023/06/22 10:31:36;;;;;;;0.57;0.38;;;;;;;;;;5006539;28;20091;-80
2023/06/22 10:34:02;;;;;;;0.20;0.20;;;;;;;;;;5010796;28;20526;-82
2023/06/22 10:36:28;;;;;;;0.52;0.30;;;;;;;;;;4988229;28;20049;-81
2023/06/22 10:38:55;;;;;;;0.28;0.20;;;;;;;;;;4993825;28;20045;-79
2023/06/22 10:41:21;;;;;;;0.40;0.25;;;;;;;;;;5000733;28;20071;-81
2023/06/22 10:43:47;;;;;;;0.20;0.20;;;;;;;;;;4995950;28;20389;-81
2023/06/22 10:46:13;;;;;;;0.52;0.38;;;;;;;;;;4990940;28;20037;-78
2023/06/22 10:48:39;;;;;;;0.28;0.28;;;;;;;;;;4987250;28;20056;-79
2023/06/22 10:51:05;;;;;;;0.30;0.22;;;;;;;;;;4995799;28;20038;-83
2023/06/22 10:53:32;;;;;;;0.45;0.20;;;;;;;;;;4990435;28;20436;-84
2023/06/22 10:55:58;;;;;;;0.20;0.20;;;;;;;;;;5011047;28;20033;-81
2023/06/22 10:58:25;;;;;;;0.20;0.20;;;;;;;;;;4997106;28;20049;-81
2023/06/22 11:00:51;;;;;;;0.20;0.10;;;;;;;;;;5007791;28;20049;-83
2023/06/22 11:03:17;;;;;;;0.43;0.38;;;;;;;;;;4999213;28;20413;-81
2023/06/22 11:05:43;;;;;;;0.20;0.20;;;;;;;;;;5011186;28;20060;-81
2023/06/22 11:08:09;;;;;;;0.20;0.17;;;;;;;;;;5000446;28;20100;-79
2023/06/22 11:10:35;;;;;;;0.52;0.35;;;;;;;;;;5014216;28;20041;-77
2023/06/22 11:13:02;;;;;;;0.20;0.20;;;;;;;;;;5005529;28;20041;-79
2023/06/22 11:15:28;;;;;;;0.20;0.17;;;;;;;;;;5013432;28;20084;-81
2023/06/22 11:17:54;;;;;;;0.20;0.10;;;;;;;;;;5015673;28;20112;-79
2023/06/22 11:20:20;;;;;;;0.40;0.20;;;;;;;;;;5020446;28;20133;-80
2023/06/22 11:22:47;;;;;;;0.40;0.40;;;;;;;;;;4999793;28;20038;-81
2023/06/22 11:25:13;;;;;;;0.30;0.30;;;;;;;;;;5003712;28;21648;-80
2023/06/22 11:27:39;;;;;;;0.22;0.20;;;;;;;;;;5016239;28;20204;-82
2023/06/22 11:30:05;;;;;;;0.88;0.28;;;;;;;;;;5019199;28;20514;-84
2023/06/22 11:32:31;;;;;;;0.98;0.68;;;;;;;;;;4999436;28;20565;-81
2023/06/22 11:34:57;;;;;;;0.20;0.15;;;;;;;;;;4998540;28;20034;-83
2023/06/22 11:37:24;;;;;;;0.45;0.40;;;;;;;;;;5018022;28;20037;-82
2023/06/22 11:39:50;;;;;;;0.30;0.20;;;;;;;;;;5013688;28;20061;-82
2023/06/22 11:42:16;;;;;;;0.20;0.20;;;;;;;;;;5022180;28;20054;-80
2023/06/22 11:44:43;;;;;;;0.20;0.20;;;;;;;;;;4992048;28;20044;-83
2023/06/22 11:47:09;;;;;;;0.20;0.20;;;;;;;;;;5005508;28;20072;-80
2023/06/22 11:49:35;;;;;;;0.20;0.10;;;;;;;;;;5003679;28;20560;-79
2023/06/22 11:52:01;;;;;;;0.20;0.10;;;;;;;;;;5000677;28;20040;-82
2023/06/22 11:54:27;;;;;;;0.28;0.20;;;;;;;;;;5003772;28;20048;-81
2023/06/22 11:56:54;;;;;;;0.20;0.10;;;;;;;;;;5015871;28;20498;-81
2023/06/22 11:59:22;;;;;;;0.43;0.35;;;;;;;;;;5000409;28;20060;-80
2023/06/22 12:01:50;;;;;;;0.20;0.10;;;;;;;;;;5021001;28;20049;-79
2023/06/22 12:04:16;;;;;;;0.43;0.20;;;;;;;;;;5016564;28;20049;-79
2023/06/22 12:06:43;;;;;;;0.20;0.10;;;;;;;;;;5011033;28;20034;-78
2023/06/22 12:09:09;;;;;;;0.20;0.17;;;;;;;;;;5016381;28;20401;-82
2023/06/22 12:11:35;;;;;;;0.30;0.30;;;;;;;;;;5016903;28;20053;-80
2023/06/22 12:14:02;;;;;;;0.32;0.20;;;;;;;;;;5014294;28;20138;-82
2023/06/22 12:16:28;;;;;;;0.20;0.10;;;;;;;;;;5019428;28;20658;-81
2023/06/22 12:18:54;;;;;;;0.20;0.10;;;;;;;;;;5010846;28;20102;-78
2023/06/22 12:21:21;;;;;;;0.30;0.25;;;;;;;;;;5014029;28;20045;-81
2023/06/22 12:23:47;;;;;;;0.25;0.20;;;;;;;;;;5015932;28;20584;-79
2023/06/22 12:26:13;;;;;;;0.20;0.20;;;;;;;;;;5023125;28;20033;-79
2023/06/22 12:28:39;;;;;;;0.28;0.25;;;;;;;;;;5017978;28;20042;-82
2023/06/22 12:31:05;;;;;;;0.20;0.20;;;;;;;;;;5015698;28;20037;-81
2023/06/22 12:33:31;;;;;;;0.20;0.10;;;;;;;;;;5014943;28;20037;-78
2023/06/22 12:35:57;;;;;;;0.40;0.30;;;;;;;;;;5014131;28;20925;-80
2023/06/22 12:38:25;;;;;;;0.20;0.10;;;;;;;;;;4998323;28;20041;-79
2023/06/22 12:40:51;;;;;;;0.20;0.20;;;;;;;;;;5011409;28;20461;-78
2023/06/22 12:43:17;;;;;;;0.20;0.10;;;;;;;;;;5016045;28;20049;-79
2023/06/22 12:45:43;;;;;;;0.28;0.28;;;;;;;;;;5019733;28;20037;-80
2023/06/22 12:48:09;;;;;;;0.20;0.17;;;;;;;;;;5012095;28;20049;-81
2023/06/22 12:50:35;;;;;;;0.35;0.20;;;;;;;;;;5018413;28;20064;-83
2023/06/22 12:53:03;;;;;;;0.38;0.35;;;;;;;;;;5012877;28;20079;-78
2023/06/22 12:55:29;;;;;;;0.22;0.13;;;;;;;;;;5012717;28;20037;-79
2023/06/22 12:57:55;;;;;;;0.28;0.20;;;;;;;;;;5011169;28;20066;-80
2023/06/22 13:00:21;;;;;;;0.28;0.17;;;;;;;;;;5024153;22;20084;-80
2023/06/22 13:02:50;;;;;;;0.45;0.38;;;;;;;;;;5015111;28;20532;-86
2023/06/22 13:05:16;;;;;;;0.45;0.25;;;;;;;;;;4996047;28;20037;-79
2023/06/22 13:07:42;;;;;;;0.47;0.25;;;;;;;;;;5018343;28;20105;-79
2023/06/22 13:10:09;;;;;;;0.20;0.20;;;;;;;;;;5018322;28;20433;-81
2023/06/22 13:12:35;;;;;;;0.30;0.25;;;;;;;;;;5018361;28;20065;-79
2023/06/22 13:15:02;;;;;;;0.25;0.17;;;;;;;;;;5009370;28;20110;-82
2023/06/22 13:17:29;;;;;;;0.28;0.28;;;;;;;;;;5006471;28;20383;-80
2023/06/22 13:19:55;;;;;;;0.20;0.20;;;;;;;;;;5003461;28;20350;-80
2023/06/22 13:22:28;;;;;;;0.22;0.20;;;;;;;;;;5000203;28;20068;-83
2023/06/22 13:24:54;;;;;;;0.30;0.20;;;;;;;;;;5025020;28;20037;-78
2023/06/22 13:27:20;;;;;;;0.20;0.10;;;;;;;;;;5045606;28;20045;-79
2023/06/22 13:29:46;;;;;;;0.20;0.10;;;;;;;;;;5006312;28;20110;-85
2023/06/22 13:32:12;;;;;;;0.20;0.15;;;;;;;;;;5022929;28;20037;-79
2023/06/22 13:34:38;;;;;;;0.20;0.10;;;;;;;;;;5023726;28;20040;-78
2023/06/22 13:37:05;;;;;;;0.25;0.22;;;;;;;;;;5018704;28;20059;-82
2023/06/22 13:39:31;;;;;;;0.30;0.20;;;;;;;;;;5002870;28;20706;-81
2023/06/22 13:41:57;;;;;;;0.98;0.35;;;;;;;;;;5023440;28;20033;-80
2023/06/22 13:44:23;;;;;;;0.32;0.30;;;;;;;;;;5014324;28;20041;-80
2023/06/22 13:46:49;;;;;;;0.25;0.25;;;;;;;;;;5021267;28;20083;-80
2023/06/22 13:49:15;;;;;;;0.95;0.63;;;;;;;;;;5020891;28;20033;-80
2023/06/22 13:51:41;;;;;;;0.30;0.30;;;;;;;;;;5021934;28;20045;-83
2023/06/22 13:54:07;;;;;;;0.73;0.30;;;;;;;;;;5000297;28;20037;-79
2023/06/22 13:56:33;;;;;;;0.25;0.13;;;;;;;;;;5029843;28;20046;-83
2023/06/22 13:58:59;;;;;;;0.60;0.30;;;;;;;;;;5004591;28;20168;-82
2023/06/22 14:01:25;;;;;;;0.22;0.22;;;;;;;;;;5018250;28;20128;-80
2023/06/22 14:03:51;;;;;;;0.20;0.20;;;;;;;;;;5022692;28;20063;-81
2023/06/22 14:06:17;;;;;;;0.20;0.10;;;;;;;;;;5006894;28;20041;-83
2023/06/22 14:08:46;;;;;;;0.20;0.20;;;;;;;;;;5005363;28;20421;-88
2023/06/22 14:11:12;;;;;;;0.40;0.20;;;;;;;;;;5000145;28;20034;-86
2023/06/22 14:13:38;;;;;;;0.43;0.40;;;;;;;;;;5000871;28;20367;-80
2023/06/22 14:16:05;;;;;;;0.30;0.30;;;;;;;;;;5002072;28;20522;-87
2023/06/22 14:18:34;;;;;;;0.20;0.20;;;;;;;;;;5017276;28;20084;-82
2023/06/22 14:21:03;;;;;;;0.20;0.13;;;;;;;;;;5023056;28;20045;-82
2023/06/22 14:23:29;;;;;;;0.40;0.28;;;;;;;;;;5011618;28;20037;-83
2023/06/22 14:25:55;;;;;;;0.45;0.45;;;;;;;;;;4999178;28;20061;-79
2023/06/22 14:28:21;;;;;;;0.40;0.28;;;;;;;;;;5015893;28;20125;-78
2023/06/22 14:30:47;;;;;;;0.20;0.10;;;;;;;;;;5014843;28;20056;-81
2023/06/22 14:33:13;;;;;;;0.38;0.30;;;;;;;;;;4993886;28;20095;-80
2023/06/22 14:35:39;;;;;;;0.47;0.20;;;;;;;;;;5000541;28;20521;-83
2023/06/22 14:38:05;;;;;;;0.45;0.40;;;;;;;;;;4996293;28;20045;-82
2023/06/22 14:40:31;;;;;;;0.45;0.35;;;;;;;;;;5018419;28;20647;-80